الصفحة الرئيسية
METAR-TAF:

METAR-TAF

مطار :

مطار تان سون نهات الدولي

هو تشي منه, فيتنام

دائرة عرض: 10-49N, خط طول: 106-40E, ارتفاع: 19 متر

مراقبة الطقس الحالي

تاريخ ووقت الإصدار 28 دقيقة قبل الساعة 21:00UTC
ريح 3 عقدة من الشرق/الشمال الشرقي
درجة الحرارة 26°درجة مئوية
الرطوبة 100%
ضغط 1006 hPa
الرؤية: 6000 متر
غيوم قليلة على ارتفاع 1700 قدم
غيوم متفرقة على ارتفاع 5000 قدم

METAR: VVTS 152100Z 07003KT 6000 FEW017 SCT050 26/26 Q1006 NOSIG

زمن: 04:28 (21:28 UTC)

توقعات

تاريخ ووقت الإصدار 4ساعات و 28 دقيقة قبل الساعة 17:00UTC
التوقعات صالحة من15 الساعة 18 UTC إلى 16 الساعة 24 UTC
ريح 2 عقدةمن اتجاهات متغيرة
الرؤية 10 كم أو أكثر
غيوم قليلة على ارتفاع 1700 قدم
غيوم مفككة على ارتفاع 5000 قدم
مؤقت
من 16 الساعة 06 UTC إلى 16 الساعة 12 UTC
ريح 10 عقدة من الجنوب/الجنوب الشرقي
الرؤية: 5000 متر
غيوم مفككة على ارتفاع 1500 قدم
غيوم قليلة على ارتفاع 1700 قدم, مزنة ركامية.
غيوم مفككة على ارتفاع 4000 قدم
عاصفة رعدية, مطر

TAF: VVTS 151700Z 1518/1624 VRB02KT 9999 FEW017 BKN050 TEMPO 1606/1612 16010KT 5000 TSRA BKN015 FEW017CB BKN040

أرصاد الطقس والتوقعات من أكثر من 4000 مطار (تقارير الطقس للمطار METAR والتنبؤ بالطقس بالمطارTAF).

المحطات المتاحة هي النقط الصفراء والحمراء على الخريطة.

حرك المؤشر فوق النقطة لمعرفة اسم المحطة.

ثم انقر لمعرفة أرصاد وتوقعات الطقس.

لتغيير الخارطة: اضغط على الأزرار الخضراء مع رمز الصليب الأسود للتكبير. على الزر الأخضر مع شرطة للتصغير، أو على الأسهم الخضراء للخرائط المجاورة.


METAR-TAF: